Time;durP1;ratioP1;P1;durP2;ratioP2;P2;SDS_P1;SDS_P2;PMS_P1;PMS_P2;Temp;Humidity;BMP_temperature;BMP_pressure;BME280_temperature;BME280_humidity;BME280_pressure;Samples;Min_cycle;Max_cycle;Signal;HPM_P1;HPM_P2
2023/11/21 00:01:18;;;;;;;39.87;23.83;;;;;;;-3.77;100.00;101815.94;5013977;28;20042;-64
2023/11/21 00:03:43;;;;;;;41.97;24.00;;;;;;;-3.85;100.00;101803.16;5013689;28;20042;-68
2023/11/21 00:06:09;;;;;;;43.10;24.87;;;;;;;-3.88;100.00;101808.47;5014727;28;20474;-66
2023/11/21 00:08:36;;;;;;;39.17;22.40;;;;;;;-3.88;100.00;101798.03;5015320;28;20058;-63
2023/11/21 00:11:02;;;;;;;38.20;22.85;;;;;;;-3.87;100.00;101789.34;5015491;28;20053;-66
2023/11/21 00:13:27;;;;;;;45.30;24.45;;;;;;;-3.71;100.00;101807.13;5014618;28;20171;-65
2023/11/21 00:15:53;;;;;;;36.47;22.23;;;;;;;-3.85;100.00;101771.06;5014660;28;20549;-67
2023/11/21 00:18:19;;;;;;;34.90;21.43;;;;;;;-4.14;100.00;101723.34;5013850;28;20040;-65
2023/11/21 00:20:44;;;;;;;38.83;21.37;;;;;;;-3.66;100.00;101811.28;5013381;28;20113;-64
2023/11/21 00:23:10;;;;;;;43.73;23.23;;;;;;;-3.93;100.00;101786.06;5013165;28;20137;-65
2023/11/21 00:25:36;;;;;;;43.77;23.47;;;;;;;-3.97;100.00;101810.47;5013245;28;20037;-65
2023/11/21 00:28:03;;;;;;;39.50;23.87;;;;;;;-3.97;100.00;101813.94;5012895;28;20077;-63
2023/11/21 00:30:29;;;;;;;42.75;22.48;;;;;;;-4.07;100.00;101784.72;5012204;28;20460;-65
2023/11/21 00:32:55;;;;;;;41.90;24.10;;;;;;;-3.98;100.00;101803.56;5011827;28;20042;-63
2023/11/21 00:35:20;;;;;;;47.10;22.03;;;;;;;-4.10;100.00;101789.16;5013180;28;20141;-64
2023/11/21 00:37:46;;;;;;;41.50;21.77;;;;;;;-4.01;100.00;101803.66;5012814;28;20056;-66
2023/11/21 00:40:12;;;;;;;51.80;25.13;;;;;;;-3.90;100.00;101814.59;5011466;28;20038;-65
2023/11/21 00:42:37;;;;;;;51.97;23.50;;;;;;;-3.89;100.00;101822.38;5012619;28;20048;-66
2023/11/21 00:45:03;;;;;;;42.43;22.37;;;;;;;-4.03;100.00;101815.88;5013080;28;20033;-64
2023/11/21 00:47:32;;;;;;;60.53;24.97;;;;;;;-4.10;100.00;101829.03;5012833;28;20041;-62
2023/11/21 00:49:57;;;;;;;45.47;23.03;;;;;;;-4.10;100.00;101834.22;5012696;28;20372;-64
2023/11/21 00:52:23;;;;;;;44.83;24.00;;;;;;;-4.33;100.00;101804.59;5012712;28;20128;-66
2023/11/21 00:54:49;;;;;;;40.77;24.10;;;;;;;-4.32;100.00;101835.75;5012773;28;20141;-63
2023/11/21 00:57:15;;;;;;;47.00;25.63;;;;;;;-4.47;100.00;101817.94;5012219;28;20029;-63
2023/11/21 00:59:40;;;;;;;39.40;22.80;;;;;;;-4.38;100.00;101835.88;5015273;28;20125;-61
2023/11/21 01:02:09;;;;;;;46.53;24.90;;;;;;;-4.35;100.00;101822.78;5016054;28;20456;-67
2023/11/21 01:04:35;;;;;;;42.55;24.48;;;;;;;-4.22;100.00;101845.00;5014736;28;20449;-66
2023/11/21 01:07:01;;;;;;;40.17;22.40;;;;;;;-4.33;100.00;101823.63;5014294;28;20081;-63
2023/11/21 01:09:27;;;;;;;41.73;24.87;;;;;;;-4.31;100.00;101826.19;5014546;28;20111;-64
2023/11/21 01:11:53;;;;;;;40.95;23.20;;;;;;;-4.44;100.00;101799.66;5012324;28;20050;-63
2023/11/21 01:14:19;;;;;;;46.80;24.83;;;;;;;-4.07;100.00;101857.56;5014231;28;20127;-65
2023/11/21 01:16:45;;;;;;;39.67;22.17;;;;;;;-4.52;100.00;101781.66;5014247;28;20137;-64
2023/11/21 01:19:10;;;;;;;47.07;25.23;;;;;;;-4.42;100.00;101795.25;5014398;28;20096;-66
2023/11/21 01:21:36;;;;;;;39.70;20.43;;;;;;;-4.16;100.00;101826.59;5013375;28;20436;-63
2023/11/21 01:24:02;;;;;;;41.37;22.80;;;;;;;-4.16;100.00;101831.81;5014046;28;20041;-62
2023/11/21 01:26:28;;;;;;;40.22;19.10;;;;;;;-4.11;100.00;101832.53;5013122;28;20488;-66
2023/11/21 01:28:56;;;;;;;39.23;21.10;;;;;;;-4.16;100.00;101821.41;5012275;28;20045;-64
2023/11/21 01:31:22;;;;;;;29.80;17.35;;;;;;;-4.00;100.00;101844.41;5012324;28;20052;-63
2023/11/21 01:33:48;;;;;;;30.50;18.03;;;;;;;-4.08;100.00;101840.25;5013364;28;20045;-63
2023/11/21 01:36:14;;;;;;;27.92;16.73;;;;;;;-4.24;100.00;101822.53;5012341;28;20037;-66
2023/11/21 01:38:39;;;;;;;28.23;18.37;;;;;;;-4.26;100.00;101825.16;5012265;28;20096;-64
2023/11/21 01:41:06;;;;;;;25.77;17.03;;;;;;;-4.15;100.00;101830.91;5012367;28;20042;-64
2023/11/21 01:43:31;;;;;;;28.50;16.05;;;;;;;-4.17;100.00;101803.25;5012039;28;20042;-65
2023/11/21 01:45:58;;;;;;;25.23;15.67;;;;;;;-3.97;100.00;101831.31;4995374;28;20061;-67
2023/11/21 01:48:24;;;;;;;26.80;16.30;;;;;;;-3.90;100.00;101848.44;5013725;28;20063;-65
2023/11/21 01:50:51;;;;;;;22.48;14.88;;;;;;;-3.92;100.00;101851.09;5010920;28;20121;-66
2023/11/21 01:53:16;;;;;;;27.02;14.73;;;;;;;-3.91;100.00;101844.97;5012123;28;20072;-65
2023/11/21 01:55:43;;;;;;;24.07;15.43;;;;;;;-4.04;100.00;101829.78;5011942;28;20136;-65
2023/11/21 01:58:11;;;;;;;24.50;13.98;;;;;;;-4.29;100.00;101793.19;5011844;28;20183;-65
2023/11/21 02:00:38;;;;;;;23.65;14.40;;;;;;;-3.96;100.00;101852.06;5012970;28;20060;-63
2023/11/21 02:03:04;;;;;;;25.00;17.13;;;;;;;-4.47;100.00;101797.13;5012736;28;20034;-66
2023/11/21 02:05:29;;;;;;;25.20;14.97;;;;;;;-4.13;100.00;101842.13;5012630;28;20048;-67
2023/11/21 02:07:56;;;;;;;23.47;14.03;;;;;;;-3.96;100.00;101853.81;5012386;28;20046;-67
2023/11/21 02:10:25;;;;;;;28.75;16.42;;;;;;;-4.14;100.00;101822.22;5014039;28;20049;-65
2023/11/21 02:12:51;;;;;;;26.20;15.27;;;;;;;-3.95;100.00;101850.31;5013834;28;20416;-64
2023/11/21 02:15:21;;;;;;;27.15;15.48;;;;;;;-3.79;100.00;101861.97;5019751;28;20037;-63
2023/11/21 02:17:51;;;;;;;25.25;16.30;;;;;;;-3.74;100.00;101857.53;5021817;28;20046;-64
2023/11/21 02:20:19;;;;;;;24.75;16.52;;;;;;;-3.73;100.00;101867.03;5013928;28;20121;-66
2023/11/21 02:22:58;;;;;;;27.70;15.68;;;;;;;-3.78;100.00;101868.91;5018537;28;20046;-65
2023/11/21 02:25:29;;;;;;;26.65;17.20;;;;;;;-3.78;100.00;101868.91;5022816;28;20038;-62
2023/11/21 02:28:00;;;;;;;26.92;16.10;;;;;;;-4.06;100.00;101848.84;5023442;28;20062;-63
2023/11/21 02:30:27;;;;;;;24.48;15.75;;;;;;;-4.03;100.00;101852.31;5023081;28;20405;-63
2023/11/21 02:32:54;;;;;;;23.50;15.35;;;;;;;-4.14;100.00;101836.97;5013606;28;20041;-67
2023/11/21 02:35:25;;;;;;;23.80;15.52;;;;;;;-3.89;100.00;101873.56;5010898;28;20484;-65
2023/11/21 02:37:52;;;;;;;22.45;15.43;;;;;;;-4.01;100.00;101838.34;5011222;28;20038;-66
2023/11/21 02:40:18;;;;;;;23.88;15.35;;;;;;;-3.79;100.00;101875.00;5010674;28;20089;-65
2023/11/21 02:42:44;;;;;;;28.90;16.10;;;;;;;-3.75;100.00;101874.88;5011498;28;20049;-63
2023/11/21 02:45:16;;;;;;;22.45;13.95;;;;;;;-3.78;100.00;101869.75;5011834;28;20042;-64
2023/11/21 02:47:43;;;;;;;25.98;15.70;;;;;;;-3.85;100.00;101856.97;5011592;28;20044;-63
2023/11/21 02:50:09;;;;;;;23.30;14.35;;;;;;;-3.77;100.00;101866.25;5012089;28;20083;-63
2023/11/21 02:52:35;;;;;;;20.73;13.97;;;;;;;-3.92;100.00;101845.88;5012132;28;20477;-63
2023/11/21 02:55:02;;;;;;;23.95;15.93;;;;;;;-3.81;100.00;101869.84;5013185;28;20048;-65
2023/11/21 02:57:28;;;;;;;21.67;13.45;;;;;;;-3.83;100.00;101866.44;5013804;28;20046;-65
2023/11/21 02:59:54;;;;;;;23.60;13.80;;;;;;;-4.09;100.00;101815.13;5014930;28;20033;-64
2023/11/21 03:02:20;;;;;;;22.50;13.98;;;;;;;-3.79;100.00;101877.59;5014971;28;20038;-66
2023/11/21 03:04:48;;;;;;;24.37;15.37;;;;;;;-3.78;100.00;101868.91;5014908;28;20034;-63
2023/11/21 03:07:13;;;;;;;24.60;14.55;;;;;;;-3.91;100.00;101862.34;5014766;28;20125;-64
2023/11/21 03:09:39;;;;;;;24.87;15.03;;;;;;;-3.75;100.00;101889.66;5013281;28;20129;-66
2023/11/21 03:12:05;;;;;;;31.43;16.70;;;;;;;-3.74;100.00;101880.94;5014539;28;20076;-65
2023/11/21 03:14:31;;;;;;;23.80;14.57;;;;;;;-3.80;100.00;101881.09;5014600;28;20112;-65
2023/11/21 03:16:57;;;;;;;24.35;14.88;;;;;;;-3.61;100.00;101900.50;5014307;28;20038;-64
2023/11/21 03:19:23;;;;;;;26.67;16.73;;;;;;;-3.68;100.00;101899.00;5014363;28;20041;-66
2023/11/21 03:21:48;;;;;;;23.60;14.23;;;;;;;-3.62;100.00;101905.75;5014144;28;20112;-65
2023/11/21 03:24:17;;;;;;;22.43;14.07;;;;;;;-3.62;100.00;101906.63;5012858;28;20128;-68
2023/11/21 03:26:46;;;;;;;22.35;14.50;;;;;;;-3.72;100.00;101904.34;5014292;28;20057;-64
2023/11/21 03:29:12;;;;;;;27.50;16.65;;;;;;;-3.87;100.00;101901.25;5013041;28;20041;-65
2023/11/21 03:31:38;;;;;;;26.07;15.40;;;;;;;-3.79;100.00;101914.88;5014478;28;20046;-64
2023/11/21 03:34:03;;;;;;;28.47;17.60;;;;;;;-3.77;100.00;101907.03;5014460;28;20041;-63
2023/11/21 03:36:29;;;;;;;27.80;17.43;;;;;;;-3.72;100.00;101902.59;5014458;28;20044;-65
2023/11/21 03:38:55;;;;;;;21.00;13.33;;;;;;;-3.82;100.00;101898.50;5014557;28;20481;-67
2023/11/21 03:41:21;;;;;;;23.58;14.18;;;;;;;-3.77;100.00;101907.03;5014792;28;20045;-65
2023/11/21 03:43:46;;;;;;;24.33;13.80;;;;;;;-4.21;100.00;101857.09;5015014;28;20041;-64
2023/11/21 03:46:12;;;;;;;19.40;12.97;;;;;;;-3.86;100.00;101913.38;5015206;28;20489;-65
2023/11/21 03:48:38;;;;;;;20.57;13.77;;;;;;;-4.33;100.00;101846.19;5015338;28;20041;-63
2023/11/21 03:51:04;;;;;;;19.45;13.98;;;;;;;-3.91;100.00;101914.41;5014147;28;20117;-65
2023/11/21 03:53:29;;;;;;;20.77;13.10;;;;;;;-4.04;100.00;101881.81;5014118;28;20091;-66
2023/11/21 03:55:55;;;;;;;19.53;12.13;;;;;;;-3.92;100.00;101895.31;5012857;28;20603;-65
2023/11/21 03:58:20;;;;;;;20.27;12.83;;;;;;;-4.37;100.00;101811.59;5013886;28;20034;-64
2023/11/21 04:00:48;;;;;;;18.47;11.63;;;;;;;-3.75;100.00;101915.69;5013784;28;20112;-63
2023/11/21 04:03:15;;;;;;;18.20;12.07;;;;;;;-3.71;100.00;101929.47;5014017;28;20048;-65
2023/11/21 04:05:41;;;;;;;23.35;12.73;;;;;;;-3.70;100.00;101929.41;5013630;28;20042;-65
2023/11/21 04:08:07;;;;;;;17.70;11.67;;;;;;;-3.61;100.00;101931.75;5013730;28;20045;-63
2023/11/21 04:10:34;;;;;;;18.70;12.00;;;;;;;-3.63;100.00;101925.75;5013578;28;20029;-63
2023/11/21 04:13:00;;;;;;;17.42;11.32;;;;;;;-3.64;100.00;101916.22;5013683;28;20330;-64
2023/11/21 04:15:27;;;;;;;15.15;10.77;;;;;;;-3.55;100.00;101926.38;5013588;28;20103;-64
2023/11/21 04:17:52;;;;;;;17.70;11.27;;;;;;;-3.55;100.00;101930.72;5012384;28;20034;-64
2023/11/21 04:20:18;;;;;;;14.53;11.50;;;;;;;-3.70;100.00;101950.25;5013664;28;20397;-64
2023/11/21 04:22:44;;;;;;;16.93;11.60;;;;;;;-3.95;100.00;101918.84;5013468;28;20046;-65
2023/11/21 04:25:11;;;;;;;15.80;10.20;;;;;;;-3.88;100.00;101930.78;5013947;28;20173;-63
2023/11/21 04:27:39;;;;;;;17.98;10.80;;;;;;;-3.89;100.00;101936.03;5014772;28;20061;-65
2023/11/21 04:30:06;;;;;;;17.43;10.73;;;;;;;-4.08;100.00;101928.69;5016747;28;20049;-67
2023/11/21 04:32:35;;;;;;;18.58;11.32;;;;;;;-3.87;100.00;101965.47;5018023;28;20386;-67
2023/11/21 04:35:01;;;;;;;19.30;11.77;;;;;;;-4.18;100.00;101948.06;5016865;28;20046;-71
2023/11/21 04:37:27;;;;;;;18.75;12.70;;;;;;;-3.98;100.00;101983.13;4997140;28;20075;-69
2023/11/21 04:39:56;;;;;;;19.60;12.27;;;;;;;-3.97;100.00;101977.88;5012888;28;20409;-68
2023/11/21 04:42:21;;;;;;;18.48;11.23;;;;;;;-3.88;100.00;101997.59;5013080;28;20042;-71
2023/11/21 04:44:48;;;;;;;18.83;11.37;;;;;;;-4.17;100.00;101949.78;5011698;28;20030;-67
2023/11/21 04:47:14;;;;;;;16.20;9.90;;;;;;;-3.98;100.00;101990.94;5013111;28;20116;-72
2023/11/21 04:49:43;;;;;;;17.27;10.20;;;;;;;-4.16;100.00;101966.22;5013226;28;20034;-67
2023/11/21 04:52:09;;;;;;;17.17;11.88;;;;;;;-4.19;100.00;101977.56;5013061;28;20040;-65
2023/11/21 04:54:35;;;;;;;19.15;10.50;;;;;;;-4.33;100.00;101986.63;5012757;28;20042;-68
2023/11/21 04:57:01;;;;;;;16.45;10.18;;;;;;;-4.49;100.00;101986.97;5013105;28;20041;-70
2023/11/21 04:59:27;;;;;;;17.20;10.10;;;;;;;-4.67;100.00;101970.06;5012961;28;20038;-64
2023/11/21 05:01:54;;;;;;;22.27;12.37;;;;;;;-4.57;100.00;101991.53;5012776;28;20667;-66
2023/11/21 05:04:22;;;;;;;15.32;10.25;;;;;;;-4.81;100.00;101972.16;5013944;28;20038;-66
2023/11/21 05:06:47;;;;;;;24.50;10.60;;;;;;;-4.89;100.00;101979.28;5010230;28;20034;-67
2023/11/21 05:09:13;;;;;;;16.27;9.67;;;;;;;-4.97;100.00;101965.56;5011700;28;20398;-65
2023/11/21 05:11:40;;;;;;;17.60;11.93;;;;;;;-4.82;100.00;101999.03;5011951;28;20041;-65
2023/11/21 05:14:06;;;;;;;18.00;12.35;;;;;;;-4.99;100.00;101982.94;5011821;28;20029;-69
2023/11/21 05:16:33;;;;;;;24.25;11.70;;;;;;;-5.06;100.00;101976.19;5011340;28;20061;-63
2023/11/21 05:19:00;;;;;;;19.90;10.68;;;;;;;-5.00;100.00;102002.03;5019557;28;20037;-67
2023/11/21 05:21:27;;;;;;;21.45;12.52;;;;;;;-5.02;100.00;102006.41;5017793;28;20036;-66
2023/11/21 05:23:53;;;;;;;21.48;12.63;;;;;;;-5.10;100.00;102001.38;5011333;28;20045;-71
2023/11/21 05:26:19;;;;;;;17.73;10.10;;;;;;;-5.24;100.00;101981.75;5012068;28;20038;-67
2023/11/21 05:28:46;;;;;;;19.10;11.55;;;;;;;-5.13;100.00;102011.84;5012374;28;20060;-63
2023/11/21 05:31:12;;;;;;;18.88;11.18;;;;;;;-5.32;100.00;101985.38;5012375;28;20136;-69
2023/11/21 05:33:38;;;;;;;18.47;11.77;;;;;;;-5.27;100.00;102000.84;5012778;28;20175;-68
2023/11/21 05:36:04;;;;;;;18.83;11.10;;;;;;;-5.28;100.00;102016.47;5012545;28;20037;-67
2023/11/21 05:38:29;;;;;;;19.37;11.37;;;;;;;-5.18;100.00;102038.78;5011054;28;20510;-69
2023/11/21 05:40:55;;;;;;;23.20;11.83;;;;;;;-5.15;100.00;102033.53;5012927;28;20037;-69
2023/11/21 05:43:21;;;;;;;18.20;11.23;;;;;;;-5.41;100.00;101995.97;5013024;28;20037;-65
2023/11/21 05:45:46;;;;;;;17.33;10.87;;;;;;;-5.23;100.00;102036.25;5012708;28;20046;-69
2023/11/21 05:48:12;;;;;;;18.57;11.00;;;;;;;-5.36;100.00;102020.09;5012257;28;20046;-71
2023/11/21 05:50:38;;;;;;;18.47;11.80;;;;;;;-5.34;100.00;102025.25;5012030;28;20128;-69
2023/11/21 05:53:03;;;;;;;17.07;11.47;;;;;;;-5.43;100.00;102013.31;5010781;28;20041;-66
2023/11/21 05:55:29;;;;;;;16.70;9.30;;;;;;;-5.33;100.00;102030.41;5011708;28;20037;-64
2023/11/21 05:57:55;;;;;;;17.80;10.63;;;;;;;-5.35;100.00;102027.00;5010523;28;20056;-67
2023/11/21 06:00:25;;;;;;;15.13;10.20;;;;;;;-5.53;100.00;102018.69;5010449;28;20120;-68
2023/11/21 06:02:53;;;;;;;15.57;10.07;;;;;;;-5.57;100.00;102017.91;5011694;28;20042;-71
2023/11/21 06:05:20;;;;;;;20.02;12.02;;;;;;;-5.36;100.00;102066.81;5012299;28;20042;-66
2023/11/21 06:07:46;;;;;;;17.50;10.15;;;;;;;-5.45;100.00;102061.81;5012013;28;20030;-69
2023/11/21 06:10:14;;;;;;;17.47;11.30;;;;;;;-5.47;100.00;102070.53;5012004;28;20512;-67
2023/11/21 06:12:42;;;;;;;19.60;9.55;;;;;;;-5.46;100.00;102093.84;5010817;28;20069;-69
2023/11/21 06:15:09;;;;;;;16.23;9.48;;;;;;;-5.61;100.00;102068.16;5012052;28;20124;-68
2023/11/21 06:17:36;;;;;;;13.25;8.63;;;;;;;-5.66;100.00;102067.41;5010655;28;20049;-69
2023/11/21 06:20:09;;;;;;;18.67;9.75;;;;;;;-5.67;100.00;102076.06;5011581;28;20084;-70
2023/11/21 06:22:36;;;;;;;15.57;8.80;;;;;;;-5.67;100.00;102074.31;5010057;28;20046;-67
2023/11/21 06:25:03;;;;;;;13.82;8.48;;;;;;;-5.71;100.00;102064.03;5011438;28;20037;-69
2023/11/21 06:27:29;;;;;;;15.55;9.45;;;;;;;-5.88;100.00;102037.53;5010343;28;20058;-67
2023/11/21 06:29:55;;;;;;;16.77;10.10;;;;;;;-5.58;100.00;102095.81;5013309;28;20524;-67
2023/11/21 06:32:22;;;;;;;15.07;9.77;;;;;;;-5.71;100.00;102075.28;5015339;28;20080;-68
2023/11/21 06:34:49;;;;;;;14.25;8.75;;;;;;;-5.79;100.00;102047.72;5014306;28;20038;-69
2023/11/21 06:37:15;;;;;;;13.55;8.35;;;;;;;-5.58;100.00;102073.28;5015298;28;20441;-68
2023/11/21 06:39:41;;;;;;;13.70;9.18;;;;;;;-5.47;100.00;102086.94;5016009;28;20040;-70
2023/11/21 06:42:07;;;;;;;12.70;8.60;;;;;;;-5.36;100.00;102105.78;5014021;28;20045;-67
2023/11/21 06:44:35;;;;;;;14.07;8.80;;;;;;;-5.27;100.00;102122.91;5015341;28;20381;-69
2023/11/21 06:47:00;;;;;;;11.77;8.27;;;;;;;-5.18;99.75;102127.94;5015167;28;20041;-69
2023/11/21 06:49:26;;;;;;;11.93;8.03;;;;;;;-5.12;99.33;102124.38;5013940;28;20064;-69
2023/11/21 06:51:53;;;;;;;14.53;9.13;;;;;;;-5.18;98.78;102129.69;5013789;28;20037;-70
2023/11/21 06:54:18;;;;;;;13.32;8.63;;;;;;;-5.04;97.90;102141.53;5015185;28;20042;-69
2023/11/21 06:56:44;;;;;;;14.17;9.53;;;;;;;-5.18;97.37;102098.53;5014959;28;20038;-70
2023/11/21 06:59:10;;;;;;;13.37;8.27;;;;;;;-5.03;97.13;102113.78;5015009;28;20034;-70
2023/11/21 07:01:38;;;;;;;12.07;7.85;;;;;;;-4.91;95.75;102134.34;5013782;28;20040;-69
2023/11/21 07:04:08;;;;;;;11.63;8.23;;;;;;;-4.86;94.81;102132.50;5014345;28;20054;-70
2023/11/21 07:06:35;;;;;;;13.10;7.53;;;;;;;-5.19;93.91;102068.25;5013428;28;20064;-70
2023/11/21 07:09:01;;;;;;;11.82;7.57;;;;;;;-4.85;92.42;102110.84;5014900;28;20049;-70
2023/11/21 07:11:27;;;;;;;12.70;8.23;;;;;;;-4.68;92.93;102139.06;5014615;28;20504;-68
2023/11/21 07:13:52;;;;;;;9.93;6.55;;;;;;;-4.81;93.06;102109.88;5013976;28;20040;-69
2023/11/21 07:16:18;;;;;;;11.13;7.93;;;;;;;-4.67;91.41;102118.22;5014904;28;20129;-70
2023/11/21 07:18:44;;;;;;;12.50;7.70;;;;;;;-4.54;90.71;102146.59;5013485;28;20100;-69
2023/11/21 07:21:12;;;;;;;9.65;6.80;;;;;;;-4.79;89.57;102118.50;5014714;28;20049;-70
2023/11/21 07:23:38;;;;;;;11.55;7.57;;;;;;;-4.91;91.25;102112.72;5014676;28;20426;-71
2023/11/21 07:26:08;;;;;;;13.73;7.93;;;;;;;-4.55;91.76;102150.94;5014557;28;20068;-65
2023/11/21 07:28:37;;;;;;;9.63;7.32;;;;;;;-4.43;89.97;102155.00;5012847;28;20050;-67
2023/11/21 07:31:03;;;;;;;8.02;5.45;;;;;;;-4.31;89.84;102154.75;5014682;28;20401;-69
2023/11/21 07:33:28;;;;;;;10.07;6.88;;;;;;;-4.70;86.67;102076.72;5014652;28;20041;-68
2023/11/21 07:35:54;;;;;;;9.80;5.90;;;;;;;-4.38;85.24;102153.16;5014856;28;20034;-70
2023/11/21 07:38:19;;;;;;;8.27;5.70;;;;;;;-4.47;86.42;102143.81;5014436;28;20382;-68
2023/11/21 07:40:45;;;;;;;9.87;6.90;;;;;;;-4.37;84.99;102147.06;5012399;28;20038;-65
2023/11/21 07:43:10;;;;;;;9.47;6.27;;;;;;;-4.37;85.03;102155.72;5014498;28;20129;-73
2023/11/21 07:45:36;;;;;;;9.33;6.77;;;;;;;-4.25;85.48;102157.22;5014538;28;20045;-67
2023/11/21 07:48:04;;;;;;;10.10;6.93;;;;;;;-4.22;84.92;102159.75;5014263;28;20042;-68
2023/11/21 07:50:30;;;;;;;11.25;6.90;;;;;;;-4.24;84.76;102145.91;5013992;28;20029;-67
2023/11/21 07:52:57;;;;;;;15.40;6.33;;;;;;;-4.14;83.87;102163.00;5013877;28;20038;-66
2023/11/21 07:55:24;;;;;;;10.20;6.72;;;;;;;-4.06;84.22;102170.63;5014193;28;20389;-68
2023/11/21 07:57:50;;;;;;;9.23;6.70;;;;;;;-4.07;84.06;102156.78;5014095;28;20048;-75
2023/11/21 08:00:16;;;;;;;10.90;6.60;;;;;;;-4.14;82.83;102150.00;5013519;28;20034;-67
2023/11/21 08:02:42;;;;;;;11.13;6.33;;;;;;;-4.16;82.96;102136.19;5014113;28;20038;-72
2023/11/21 08:05:08;;;;;;;10.37;6.50;;;;;;;-4.11;83.49;102151.69;5014624;28;20283;-67
2023/11/21 08:07:34;;;;;;;10.32;6.50;;;;;;;-3.93;83.33;102158.22;5013965;28;20485;-67
2023/11/21 08:10:00;;;;;;;9.83;6.13;;;;;;;-3.82;83.19;102169.22;5013556;28;20038;-65
2023/11/21 08:12:27;;;;;;;8.57;6.23;;;;;;;-3.78;82.83;102173.44;5012339;28;20037;-63
2023/11/21 08:14:53;;;;;;;14.57;7.03;;;;;;;-3.86;84.05;102167.59;5013587;28;20041;-69
2023/11/21 08:17:20;;;;;;;9.40;6.37;;;;;;;-3.96;87.44;102164.34;5013407;28;20099;-67
2023/11/21 08:19:49;;;;;;;8.93;6.85;;;;;;;-3.99;88.41;102163.56;5012356;28;20110;-66
2023/11/21 08:22:20;;;;;;;9.97;6.40;;;;;;;-3.98;89.83;102149.66;5013238;28;20034;-65
2023/11/21 08:24:46;;;;;;;13.52;7.03;;;;;;;-3.98;89.24;102166.13;5013482;28;20069;-68
2023/11/21 08:27:15;;;;;;;9.48;5.97;;;;;;;-4.31;90.00;102138.28;5013265;28;20131;-66
2023/11/21 08:29:41;;;;;;;;;;;;;;;-4.03;90.79;102172.34;5013957;28;20048;-65
2023/11/21 08:32:07;;;;;;;11.45;6.78;;;;;;;-4.06;91.30;102165.44;5015138;28;19918;-67
2023/11/21 08:34:33;;;;;;;11.67;7.03;;;;;;;-4.38;91.09;102119.34;5013894;28;20084;-68
2023/11/21 08:36:59;;;;;;;13.80;7.00;;;;;;;-4.22;93.00;102146.72;5013489;28;20382;-67
2023/11/21 08:39:24;;;;;;;9.53;6.57;;;;;;;-4.12;93.37;102149.97;5013225;28;20042;-69
2023/11/21 08:41:50;;;;;;;10.47;7.17;;;;;;;-3.94;92.59;102179.94;5012854;28;20038;-66
2023/11/21 08:44:18;;;;;;;8.57;6.00;;;;;;;-4.13;92.39;102122.25;5013357;28;20041;-69
2023/11/21 08:46:45;;;;;;;10.65;5.65;;;;;;;-4.61;93.33;102020.22;5013673;28;20469;-66
2023/11/21 08:49:11;;;;;;;10.43;6.07;;;;;;;-3.79;92.94;102162.19;5013523;28;20097;-66
2023/11/21 08:51:37;;;;;;;9.68;5.53;;;;;;;-3.88;92.93;102166.75;5011549;28;20124;-67
2023/11/21 08:54:07;;;;;;;8.82;6.47;;;;;;;-4.04;93.15;102168.03;5013715;28;20122;-66
2023/11/21 08:56:33;;;;;;;6.88;4.65;;;;;;;-4.24;94.06;102139.84;5014523;28;20057;-67
2023/11/21 08:59:02;;;;;;;8.07;6.20;;;;;;;-4.25;94.88;102136.41;5013507;28;20034;-68
2023/11/21 09:01:33;;;;;;;9.40;4.63;;;;;;;-4.00;95.43;102170.53;5013334;28;20312;-67
2023/11/21 09:03:59;;;;;;;13.52;4.85;;;;;;;-4.16;95.01;102138.78;5013237;28;20048;-70
2023/11/21 09:06:24;;;;;;;7.37;5.60;;;;;;;-3.78;94.87;102165.63;5013396;28;20033;-68
2023/11/21 09:08:50;;;;;;;6.93;5.07;;;;;;;-3.65;93.88;102176.63;5012952;28;20064;-67
2023/11/21 09:11:17;;;;;;;10.13;5.77;;;;;;;-3.59;93.23;102172.13;5012203;28;20065;-68
2023/11/21 09:13:42;;;;;;;6.60;5.32;;;;;;;-3.52;93.35;102172.81;5012112;28;20068;-71
2023/11/21 09:16:08;;;;;;;5.43;3.97;;;;;;;-3.51;93.52;102149.34;5013076;28;20042;-69
2023/11/21 09:18:34;;;;;;;6.60;4.60;;;;;;;-3.51;92.87;102123.28;5012848;28;20493;-69
2023/11/21 09:20:59;;;;;;;5.80;4.40;;;;;;;-3.17;92.21;102169.34;5012718;28;20050;-69
2023/11/21 09:23:25;;;;;;;7.93;5.40;;;;;;;-3.17;92.96;102161.50;5013911;28;20046;-70
2023/11/21 09:25:51;;;;;;;5.97;4.33;;;;;;;-3.18;92.50;102163.28;5013659;28;20069;-69
2023/11/21 09:28:18;;;;;;;11.05;6.75;;;;;;;-3.17;93.22;102158.91;5014628;28;20052;-67
2023/11/21 09:30:44;;;;;;;13.68;5.70;;;;;;;-3.34;94.38;102132.44;5014443;28;20076;-68
2023/11/21 09:33:10;;;;;;;9.53;6.33;;;;;;;-3.32;93.89;102148.88;5018202;28;20038;-67
2023/11/21 09:35:39;;;;;;;14.50;7.25;;;;;;;-3.47;94.07;102147.50;5025136;28;20045;-65
2023/11/21 09:38:09;;;;;;;13.70;7.80;;;;;;;-3.41;95.50;102167.34;5025938;28;20045;-65
2023/11/21 09:40:35;;;;;;;9.45;6.45;;;;;;;-3.36;95.99;102163.72;5027602;28;20041;-71
2023/11/21 09:43:07;;;;;;;10.33;6.73;;;;;;;-3.44;96.11;102150.91;5013064;28;20050;-72
2023/11/21 09:45:38;;;;;;;11.95;6.72;;;;;;;-3.28;96.70;102151.34;5012480;28;20083;-68
2023/11/21 09:48:09;;;;;;;10.18;7.32;;;;;;;-3.07;95.92;102164.72;5012507;28;20038;-70
2023/11/21 09:50:36;;;;;;;9.60;7.15;;;;;;;-2.94;94.64;102171.28;5012287;28;20068;-69
2023/11/21 09:53:20;;;;;;;11.82;8.10;;;;;;;-3.00;95.63;102172.31;5012358;28;20045;-71
2023/11/21 09:55:48;;;;;;;12.35;7.85;;;;;;;-3.11;95.95;102161.34;5010467;28;20068;-68
2023/11/21 09:58:14;;;;;;;10.45;6.90;;;;;;;-3.09;96.72;102156.09;5012116;28;20084;-67
2023/11/21 10:00:44;;;;;;;16.90;8.65;;;;;;;-3.09;96.75;102156.94;5011808;28;20034;-65
2023/11/21 10:03:11;;;;;;;10.63;7.20;;;;;;;-3.02;97.29;102168.91;5012200;28;20055;-67
2023/11/21 10:05:38;;;;;;;19.42;8.35;;;;;;;-3.05;98.27;102171.59;5012585;28;20045;-70
2023/11/21 10:08:09;;;;;;;14.50;7.53;;;;;;;-3.24;98.80;102152.97;5010634;28;20040;-69
2023/11/21 10:10:37;;;;;;;12.00;7.57;;;;;;;-3.11;100.00;102184.81;5011669;28;20037;-67
2023/11/21 10:13:07;;;;;;;13.15;8.25;;;;;;;-3.40;100.00;102156.91;5010138;28;20066;-69
2023/11/21 10:15:36;;;;;;;18.25;8.82;;;;;;;-3.49;100.00;102157.97;5011675;28;20494;-68
2023/11/21 10:18:03;;;;;;;13.95;9.13;;;;;;;-3.35;100.00;102196.72;5012182;28;20049;-68
2023/11/21 10:20:30;;;;;;;13.23;8.05;;;;;;;-3.32;100.00;102178.38;5010628;28;20111;-69
2023/11/21 10:22:58;;;;;;;;;;;;;;;-3.06;100.00;102187.28;5011994;28;20096;-68
2023/11/21 10:25:23;;;;;;;20.97;10.17;;;;;;;-3.04;100.00;102180.28;5011462;28;19921;-66
2023/11/21 10:27:51;;;;;;;12.97;8.37;;;;;;;-3.07;100.00;102170.78;5013246;28;20144;-64
2023/11/21 10:30:18;;;;;;;13.65;8.38;;;;;;;-2.99;100.00;102176.63;5013116;28;20115;-71
2023/11/21 10:32:44;;;;;;;13.48;7.57;;;;;;;-3.03;100.00;102166.34;4994994;28;20510;-71
2023/11/21 10:35:10;;;;;;;14.20;9.18;;;;;;;-3.05;100.00;102170.75;5012419;28;20034;-71
2023/11/21 10:37:40;;;;;;;18.17;8.57;;;;;;;-2.94;100.00;102200.81;5012227;28;20604;-71
2023/11/21 10:40:11;;;;;;;17.40;9.60;;;;;;;-3.01;100.00;102181.03;5012362;28;20084;-70
2023/11/21 10:42:39;;;;;;;11.52;7.10;;;;;;;-3.35;100.00;102123.75;5012432;28;20493;-70
2023/11/21 10:45:23;;;;;;;14.63;8.25;;;;;;;-2.96;100.00;102189.59;5012175;28;20450;-68
2023/11/21 10:47:52;;;;;;;10.60;6.82;;;;;;;-2.89;100.00;102198.97;5012581;28;20054;-67
2023/11/21 10:50:18;;;;;;;;;;;;;;;-2.91;100.00;102187.69;5013238;28;20041;-68
2023/11/21 10:52:47;;;;;;;14.83;7.40;;;;;;;-2.97;100.00;102180.06;5012669;28;19918;-67
2023/11/21 10:55:23;;;;;;;11.35;7.10;;;;;;;-3.04;100.00;102170.69;5020545;28;20124;-68
2023/11/21 10:57:52;;;;;;;9.93;6.85;;;;;;;-3.07;100.00;102170.78;5018439;28;20042;-68
2023/11/21 11:00:23;;;;;;;9.20;6.70;;;;;;;-2.92;100.00;102196.41;5015936;28;20176;-69
2023/11/21 11:02:52;;;;;;;12.27;7.15;;;;;;;-2.87;100.00;102202.41;5025584;28;20053;-66
2023/11/21 11:05:20;;;;;;;11.55;8.43;;;;;;;-2.91;100.00;102200.75;5023555;28;20034;-66
2023/11/21 11:07:54;;;;;;;15.30;9.02;;;;;;;-2.97;100.00;102200.06;5038381;28;20390;-66